Time;durP1;ratioP1;P1;durP2;ratioP2;P2;SDS_P1;SDS_P2;PMS_P1;PMS_P2;Temp;Humidity;BMP_temperature;BMP_pressure;BME280_temperature;BME280_humidity;BME280_pressure;Samples;Min_cycle;Max_cycle;Signal;HPM_P1;HPM_P2
2022/05/14 00:00:53;;;;;;;8.25;3.60;;;;;;;9.78;68.55;100959.22;5004396;28;20034;-75
2022/05/14 00:03:19;;;;;;;7.20;3.83;;;;;;;9.82;68.41;100960.97;4983715;28;20401;-76
2022/05/14 00:05:45;;;;;;;7.60;4.15;;;;;;;9.80;70.75;100957.47;5001231;28;20038;-75
2022/05/14 00:08:12;;;;;;;10.00;3.63;;;;;;;9.76;69.56;100966.22;5004210;28;20088;-75
2022/05/14 00:13:22;;;;;;;7.50;4.47;;;;;;;9.73;68.98;100960.94;4980145;28;20041;-75
2022/05/14 00:15:48;;;;;;;7.53;3.65;;;;;;;9.73;68.96;100972.38;5002559;28;20042;-75
2022/05/14 00:18:13;;;;;;;8.15;3.80;;;;;;;9.70;68.85;100966.22;4961226;28;20452;-75
2022/05/14 00:20:40;;;;;;;6.95;3.08;;;;;;;9.73;68.63;100971.50;5002148;28;20496;-75
2022/05/14 00:23:06;;;;;;;8.05;4.13;;;;;;;9.79;69.05;100972.38;5003604;28;20034;-75
2022/05/14 00:25:32;;;;;;;8.43;3.85;;;;;;;9.82;68.48;100969.78;4982916;28;20137;-75
2022/05/14 00:27:58;;;;;;;11.45;3.95;;;;;;;9.81;68.41;100968.00;5001302;28;20045;-75
2022/05/14 00:30:26;;;;;;;6.15;3.78;;;;;;;9.83;68.32;100971.53;5003106;28;20034;-76
2022/05/14 00:32:52;;;;;;;7.38;4.20;;;;;;;9.82;68.65;100966.25;5002429;28;20049;-75
2022/05/14 00:35:18;;;;;;;7.57;3.72;;;;;;;9.84;68.45;100959.22;4983806;28;20069;-75
2022/05/14 00:37:44;;;;;;;9.27;4.20;;;;;;;9.86;68.49;100960.13;5000337;28;20026;-75
2022/05/14 00:40:18;;;;;;;7.78;4.18;;;;;;;9.88;68.29;100959.25;5003673;28;20517;-75
2022/05/14 00:42:43;;;;;;;5.65;3.80;;;;;;;9.84;68.42;100957.47;5002341;28;20030;-75
2022/05/14 00:45:12;;;;;;;8.48;4.53;;;;;;;9.85;68.38;100958.34;5000020;28;20536;-75
2022/05/14 00:47:40;;;;;;;9.00;3.80;;;;;;;9.87;67.89;100959.22;4974239;28;20493;-75
2022/05/14 00:50:26;;;;;;;8.85;3.50;;;;;;;9.86;67.49;100954.84;5003111;28;20496;-75
2022/05/14 00:53:00;;;;;;;6.20;3.20;;;;;;;9.81;67.37;100954.81;4971383;28;20509;-75
2022/05/14 00:55:26;;;;;;;6.75;3.35;;;;;;;9.71;68.14;100953.03;4984166;28;20037;-75
2022/05/14 00:57:51;;;;;;;9.32;3.72;;;;;;;9.63;68.00;100957.38;4993940;28;20044;-75
2022/05/14 01:00:21;;;;;;;8.43;3.80;;;;;;;9.61;68.53;100949.47;4982889;28;20117;-75
2022/05/14 01:02:48;;;;;;;8.35;3.53;;;;;;;9.63;68.85;100945.09;4988531;28;20726;-75
2022/05/14 01:05:16;;;;;;;11.00;4.00;;;;;;;9.66;68.16;100947.72;4984667;28;20113;-75
2022/05/14 01:07:42;;;;;;;6.15;3.50;;;;;;;9.69;68.19;100945.97;4977215;28;20038;-75
2022/05/14 01:10:11;;;;;;;7.47;3.53;;;;;;;9.65;68.56;100951.25;4999223;28;20034;-75
2022/05/14 01:12:43;;;;;;;6.78;3.72;;;;;;;9.59;68.79;100943.31;4971544;28;20567;-75
2022/05/14 01:15:18;;;;;;;5.50;3.50;;;;;;;9.50;68.70;100942.38;5001789;28;20034;-75
2022/05/14 01:17:44;;;;;;;8.90;3.50;;;;;;;9.41;69.14;100944.13;4974635;28;20133;-75
2022/05/14 01:20:11;;;;;;;6.32;4.22;;;;;;;9.39;69.23;100940.59;5001865;28;20184;-75
2022/05/14 01:23:01;;;;;;;8.43;5.30;;;;;;;9.35;70.01;100937.91;4959565;28;20041;-75
2022/05/14 01:28:30;;;;;;;7.45;3.92;;;;;;;9.20;69.52;100942.25;4967755;28;20112;-75
2022/05/14 01:30:58;;;;;;;6.93;3.90;;;;;;;9.18;69.83;100948.38;4982635;28;20026;-75
2022/05/14 01:33:24;;;;;;;10.07;3.85;;;;;;;9.21;69.70;100946.63;4980292;28;20030;-74
2022/05/14 01:35:51;;;;;;;9.85;4.43;;;;;;;9.23;70.05;100948.41;4960540;28;20631;-75
2022/05/14 01:38:21;;;;;;;8.82;3.97;;;;;;;9.24;69.91;100940.50;4982932;28;20117;-75
2022/05/14 01:40:47;;;;;;;10.38;5.05;;;;;;;9.30;69.75;100945.81;5000383;28;20412;-75
2022/05/14 01:43:12;;;;;;;8.68;4.70;;;;;;;9.34;69.24;100941.44;5002533;28;20034;-75
2022/05/14 01:45:39;;;;;;;8.55;4.10;;;;;;;9.33;69.18;100950.22;4975520;28;20485;-75
2022/05/14 01:48:05;;;;;;;14.70;4.95;;;;;;;9.33;69.78;100943.19;4983931;28;20038;-75
2022/05/14 01:50:31;;;;;;;10.25;4.03;;;;;;;9.33;70.26;100937.94;4993181;28;20390;-74
2022/05/14 01:52:56;;;;;;;7.10;4.28;;;;;;;9.32;69.76;100944.03;4999759;28;20238;-75
2022/05/14 01:55:22;;;;;;;8.38;4.22;;;;;;;9.31;69.96;100941.44;4974240;28;20042;-75
2022/05/14 01:57:48;;;;;;;8.10;4.03;;;;;;;9.28;69.47;100944.91;4982981;28;20032;-75
2022/05/14 02:00:16;;;;;;;7.85;3.60;;;;;;;9.28;69.61;100950.19;4984266;28;20073;-74
2022/05/14 02:02:47;;;;;;;11.13;4.72;;;;;;;9.25;69.75;100938.72;4977096;28;20121;-74
2022/05/14 02:05:16;;;;;;;7.05;4.18;;;;;;;9.24;69.75;100934.34;4982140;28;20157;-74
2022/05/14 02:07:42;;;;;;;10.13;5.20;;;;;;;9.20;69.26;100941.38;4984837;28;20030;-74
2022/05/14 02:10:08;;;;;;;6.50;4.00;;;;;;;9.16;69.40;100937.81;4991898;28;20378;-74
2022/05/14 02:12:34;;;;;;;7.40;3.88;;;;;;;9.14;69.90;100934.31;5000727;28;20073;-74
2022/05/14 02:15:00;;;;;;;9.30;4.75;;;;;;;9.11;70.28;100936.91;4993215;28;20139;-74
2022/05/14 02:17:25;;;;;;;11.00;4.60;;;;;;;9.04;70.82;100936.84;4982154;28;20042;-74
2022/05/14 02:19:50;;;;;;;8.98;4.45;;;;;;;9.06;71.60;100936.00;4974273;28;20035;-75
2022/05/14 02:22:16;;;;;;;12.80;5.32;;;;;;;9.12;71.21;100929.91;5002101;28;20058;-75
2022/05/14 02:24:45;;;;;;;12.25;4.95;;;;;;;9.14;70.94;100931.69;4992195;28;20041;-75
2022/05/14 02:27:11;;;;;;;7.22;3.63;;;;;;;9.16;70.76;100929.91;4979464;28;20413;-75
2022/05/14 02:29:51;;;;;;;7.63;3.75;;;;;;;9.18;70.93;100933.44;4973799;28;20116;-75
2022/05/14 02:32:23;;;;;;;12.48;5.03;;;;;;;9.20;70.84;100929.06;4973573;28;20049;-75
2022/05/14 02:34:49;;;;;;;10.57;4.10;;;;;;;9.16;71.00;100921.13;4982209;28;20404;-75
2022/05/14 02:37:17;;;;;;;8.70;4.18;;;;;;;9.20;70.84;100923.81;4957997;28;20041;-75
2022/05/14 02:39:44;;;;;;;6.07;3.80;;;;;;;9.17;70.19;100931.69;4985137;28;20037;-75
2022/05/14 02:42:10;;;;;;;5.38;3.60;;;;;;;9.11;70.14;100929.00;4986800;28;20130;-75
2022/05/14 02:44:35;;;;;;;7.30;4.53;;;;;;;9.09;71.05;100921.97;5004085;28;20038;-75
2022/05/14 02:47:01;;;;;;;7.43;4.07;;;;;;;9.10;70.80;100919.34;5005531;28;20037;-75
2022/05/14 02:49:26;;;;;;;8.50;3.75;;;;;;;9.15;70.66;100914.13;4985183;28;20508;-75
2022/05/14 02:51:52;;;;;;;6.97;4.18;;;;;;;9.13;70.63;100913.22;4971461;28;20040;-75
2022/05/14 02:54:17;;;;;;;5.55;3.70;;;;;;;9.19;70.46;100907.97;4977294;28;20037;-76
2022/05/14 02:56:43;;;;;;;10.55;5.13;;;;;;;9.23;71.64;100904.50;5004439;28;20511;-75
2022/05/14 02:59:09;;;;;;;5.95;4.18;;;;;;;9.29;71.33;100919.47;4986310;28;20104;-75
2022/05/14 03:01:47;;;;;;;5.82;3.60;;;;;;;9.38;70.37;100914.25;4976502;28;20049;-75
2022/05/14 03:04:15;;;;;;;5.50;3.53;;;;;;;9.42;70.26;100918.63;4978419;28;20034;-75
2022/05/14 03:06:41;;;;;;;6.68;4.15;;;;;;;9.42;70.16;100916.00;5003565;28;20046;-76
2022/05/14 03:09:06;;;;;;;8.85;4.60;;;;;;;9.46;70.44;100915.16;4979838;28;20038;-76
2022/05/14 03:11:32;;;;;;;9.30;3.85;;;;;;;9.58;69.95;100924.84;4984599;28;20042;-76
2022/05/14 03:13:57;;;;;;;9.63;3.90;;;;;;;9.57;69.98;100923.97;5005402;28;20168;-75
2022/05/14 03:16:23;;;;;;;6.47;3.55;;;;;;;9.65;70.00;100916.97;4985384;28;20042;-76
2022/05/14 03:18:48;;;;;;;5.70;3.65;;;;;;;9.76;69.65;100929.31;4986580;28;20053;-75
2022/05/14 03:21:14;;;;;;;7.10;3.50;;;;;;;9.86;69.66;100925.84;4978580;28;20137;-76
2022/05/14 03:23:39;;;;;;;6.53;3.63;;;;;;;9.96;69.70;100930.28;4985316;28;20034;-75
2022/05/14 03:26:05;;;;;;;7.68;3.60;;;;;;;10.06;68.69;100924.16;4984021;28;20038;-75
2022/05/14 03:28:30;;;;;;;7.90;3.45;;;;;;;10.15;68.88;100920.63;5005188;28;20038;-75
2022/05/14 03:30:57;;;;;;;6.30;3.60;;;;;;;10.29;68.50;100925.97;5002040;28;20044;-75
2022/05/14 03:33:23;;;;;;;5.95;2.80;;;;;;;10.41;68.09;100926.00;5003951;28;20030;-75
2022/05/14 03:35:48;;;;;;;7.38;3.88;;;;;;;10.49;67.95;100924.22;4956366;28;20050;-75
2022/05/14 03:38:14;;;;;;;9.50;3.80;;;;;;;10.57;68.07;100926.00;4987189;28;20037;-75
2022/05/14 03:40:39;;;;;;;8.48;4.07;;;;;;;10.61;67.71;100928.66;4986803;28;20034;-75
2022/05/14 03:43:05;;;;;;;6.05;3.58;;;;;;;10.71;67.49;100934.78;5004659;28;20073;-75
2022/05/14 03:45:30;;;;;;;7.90;3.97;;;;;;;10.74;67.59;100938.31;4994779;28;20048;-76
2022/05/14 03:47:57;;;;;;;7.18;3.10;;;;;;;10.79;67.13;100934.78;4982515;28;20101;-75
2022/05/14 03:50:23;;;;;;;10.80;3.97;;;;;;;10.84;67.37;100935.66;4985206;28;20088;-75
2022/05/14 03:52:48;;;;;;;7.43;3.80;;;;;;;10.87;67.43;100936.56;4995112;28;20446;-75
2022/05/14 03:55:14;;;;;;;7.60;3.42;;;;;;;10.91;66.92;100933.00;4984163;28;20092;-75
2022/05/14 03:57:40;;;;;;;6.95;3.25;;;;;;;11.03;66.63;100933.88;4976292;28;20037;-75
2022/05/14 04:00:07;;;;;;;7.30;3.22;;;;;;;11.17;66.54;100940.91;4984539;28;20038;-75
2022/05/14 04:02:38;;;;;;;7.47;3.20;;;;;;;11.24;66.44;100935.59;5003122;28;20038;-75
2022/05/14 04:05:04;;;;;;;7.90;3.20;;;;;;;11.29;65.48;100931.16;4983449;28;20880;-75
2022/05/14 04:07:33;;;;;;;6.85;3.20;;;;;;;11.40;66.22;100937.31;4986781;28;20025;-75
2022/05/14 04:09:58;;;;;;;6.60;3.15;;;;;;;11.46;65.48;100934.66;4980709;28;20034;-75
2022/05/14 04:12:27;;;;;;;7.88;3.25;;;;;;;11.54;65.29;100939.91;4980607;28;20081;-76
2022/05/14 04:14:53;;;;;;;5.47;2.95;;;;;;;11.62;65.12;100935.47;4981473;28;20030;-75
2022/05/14 04:17:18;;;;;;;6.82;2.88;;;;;;;11.66;65.13;100933.69;4983305;28;20419;-75
2022/05/14 04:19:44;;;;;;;5.00;2.95;;;;;;;11.76;65.17;100933.66;4981380;28;20029;-75
2022/05/14 04:22:09;;;;;;;9.27;3.03;;;;;;;11.76;65.23;100936.31;4996101;28;20026;-76
2022/05/14 04:24:35;;;;;;;7.10;3.10;;;;;;;11.76;65.21;100936.31;4983100;28;20027;-75
2022/05/14 04:27:00;;;;;;;6.28;2.80;;;;;;;11.88;65.54;100926.59;4997166;28;20045;-75
2022/05/14 04:29:26;;;;;;;5.05;2.80;;;;;;;12.01;65.01;100929.16;4983100;28;20454;-78
2022/05/14 04:31:51;;;;;;;5.20;2.97;;;;;;;12.05;64.63;100932.66;4999357;28;20117;-76
2022/05/14 04:34:18;;;;;;;7.60;2.78;;;;;;;11.96;64.84;100935.34;5002289;28;20066;-76
2022/05/14 04:36:43;;;;;;;7.20;3.00;;;;;;;11.89;64.78;100944.19;4983172;28;20034;-76
2022/05/14 04:39:10;;;;;;;7.82;2.40;;;;;;;11.85;64.96;100946.84;4985669;28;20025;-76
2022/05/14 04:41:36;;;;;;;3.95;2.53;;;;;;;11.83;65.07;100943.31;4976662;28;20088;-76
2022/05/14 04:44:03;;;;;;;7.95;3.00;;;;;;;11.91;64.45;100945.09;4980034;28;20043;-75
2022/05/14 04:46:28;;;;;;;7.93;2.70;;;;;;;11.87;65.04;100948.63;4992872;28;20030;-76
2022/05/14 04:48:56;;;;;;;5.38;2.63;;;;;;;11.87;65.37;100944.22;4982336;28;20030;-76
2022/05/14 04:51:21;;;;;;;4.68;2.80;;;;;;;11.92;65.18;100957.41;5001844;28;20041;-78
2022/05/14 04:53:47;;;;;;;5.55;2.60;;;;;;;11.98;64.79;100952.97;5000365;28;20037;-76
2022/05/14 04:56:13;;;;;;;7.43;3.30;;;;;;;12.08;65.20;100961.75;4976816;28;20034;-74
2022/05/14 04:58:38;;;;;;;8.55;3.42;;;;;;;12.16;65.00;100962.59;4981711;28;20160;-75
2022/05/14 05:01:04;;;;;;;8.48;3.00;;;;;;;12.21;65.44;100966.09;4998327;28;20026;-75
2022/05/14 05:03:29;;;;;;;6.30;2.92;;;;;;;12.20;65.35;100964.31;4980763;28;20034;-76
2022/05/14 05:06:00;;;;;;;5.57;2.67;;;;;;;12.24;64.65;100970.47;5001052;28;20116;-76
2022/05/14 05:08:29;;;;;;;7.13;2.65;;;;;;;12.27;64.75;100968.69;4992659;28;20081;-75
2022/05/14 05:10:55;;;;;;;5.85;3.08;;;;;;;12.34;64.65;100977.47;5000806;28;20038;-75
2022/05/14 05:13:23;;;;;;;5.43;2.90;;;;;;;12.41;64.83;100978.31;4990435;28;20073;-75
2022/05/14 05:15:49;;;;;;;5.90;2.78;;;;;;;12.44;64.24;100986.22;4971201;28;20034;-75
2022/05/14 05:18:15;;;;;;;6.38;3.30;;;;;;;12.48;64.62;100985.31;5002325;28;20042;-75
2022/05/14 05:20:44;;;;;;;7.40;3.20;;;;;;;12.54;64.47;100974.69;5001593;28;20084;-75
2022/05/14 05:23:14;;;;;;;5.35;3.25;;;;;;;12.63;63.85;100976.41;4982900;28;20041;-75
2022/05/14 05:25:40;;;;;;;6.65;3.42;;;;;;;12.72;64.01;100984.25;4978207;28;20128;-75
2022/05/14 05:28:06;;;;;;;4.88;2.70;;;;;;;12.77;63.91;100978.94;4983013;28;20069;-75
2022/05/14 05:30:31;;;;;;;4.30;2.58;;;;;;;12.85;63.57;100969.16;5001508;28;20038;-75
2022/05/14 05:32:57;;;;;;;6.15;2.92;;;;;;;12.91;63.29;100971.75;4976436;28;20030;-75
2022/05/14 05:35:22;;;;;;;7.22;2.80;;;;;;;12.99;63.99;100983.13;4997749;28;20453;-76
2022/05/14 05:37:48;;;;;;;7.05;2.90;;;;;;;13.09;63.53;100995.41;4957833;28;20019;-76
2022/05/14 05:40:15;;;;;;;4.82;2.55;;;;;;;13.20;63.04;100981.19;5002307;28;20041;-76
2022/05/14 05:42:41;;;;;;;4.63;2.90;;;;;;;13.23;63.22;100989.09;5000470;28;20087;-75
2022/05/14 05:45:08;;;;;;;6.38;2.58;;;;;;;13.38;62.54;100996.94;5003859;28;20058;-75
2022/05/14 05:47:33;;;;;;;8.77;2.67;;;;;;;13.45;62.69;100997.78;5001536;28;20044;-76
2022/05/14 05:49:58;;;;;;;7.32;2.80;;;;;;;13.51;62.78;100993.25;5000511;28;20033;-76
2022/05/14 05:52:24;;;;;;;6.28;3.10;;;;;;;13.59;62.43;101002.00;4981816;28;20042;-76
2022/05/14 05:57:39;;;;;;;6.88;2.80;;;;;;;13.82;61.93;101012.38;4986765;28;20096;-76
2022/05/14 06:00:16;;;;;;;6.05;3.08;;;;;;;13.87;61.17;101007.00;4993945;28;20038;-76
2022/05/14 06:02:42;;;;;;;6.93;3.13;;;;;;;13.98;60.62;101010.41;4999872;28;20042;-76
2022/05/14 06:05:07;;;;;;;8.80;3.40;;;;;;;14.08;59.75;101013.81;4994307;28;20037;-75
2022/05/14 06:07:34;;;;;;;5.10;3.05;;;;;;;14.12;59.58;101006.69;4998691;28;20030;-75
2022/05/14 06:10:01;;;;;;;5.45;3.05;;;;;;;14.19;59.54;101008.38;4982966;28;20034;-75
2022/05/14 06:12:27;;;;;;;6.15;3.13;;;;;;;14.29;59.07;101009.13;5000677;28;20061;-76
2022/05/14 06:14:52;;;;;;;6.38;3.00;;;;;;;14.37;59.47;101008.13;5004845;28;20080;-75
2022/05/14 06:17:18;;;;;;;6.20;3.22;;;;;;;14.45;59.17;101005.34;4985688;28;20440;-76
2022/05/14 06:19:43;;;;;;;5.82;2.85;;;;;;;14.60;59.31;101007.81;4998106;28;20452;-75
2022/05/14 06:22:08;;;;;;;8.50;3.28;;;;;;;14.72;59.00;101006.75;5005781;28;20030;-75
2022/05/14 06:24:36;;;;;;;7.65;3.00;;;;;;;14.83;58.74;101012.78;5003904;28;20552;-75
2022/05/14 06:27:01;;;;;;;8.45;3.70;;;;;;;14.86;58.59;101004.75;5002030;28;20038;-76
2022/05/14 06:29:26;;;;;;;8.35;3.90;;;;;;;14.99;58.51;101010.75;5005300;28;20121;-75
2022/05/14 06:31:52;;;;;;;9.55;4.10;;;;;;;15.08;57.52;101007.91;5003212;28;20555;-76
2022/05/14 06:34:17;;;;;;;8.30;4.65;;;;;;;15.21;57.13;101013.91;4977443;28;20046;-75
2022/05/14 06:36:43;;;;;;;9.15;4.57;;;;;;;15.30;56.68;101003.13;4988309;28;20084;-75
2022/05/14 06:39:08;;;;;;;5.28;3.50;;;;;;;15.36;56.72;100995.94;5003679;28;20445;-75
2022/05/14 06:41:34;;;;;;;9.45;4.13;;;;;;;15.41;56.11;101000.25;5003650;28;20096;-75
2022/05/14 06:43:59;;;;;;;9.00;4.10;;;;;;;15.44;56.41;101000.19;5003914;28;20597;-75
2022/05/14 06:46:25;;;;;;;7.85;4.13;;;;;;;15.59;56.29;101004.34;4963318;28;20034;-76
2022/05/14 06:48:50;;;;;;;10.32;4.22;;;;;;;15.69;55.97;101005.97;4975407;28;20404;-76
2022/05/14 06:51:20;;;;;;;10.70;5.25;;;;;;;15.77;54.95;101006.69;4972661;28;20481;-75
2022/05/14 06:53:48;;;;;;;9.95;4.88;;;;;;;15.88;55.23;101002.94;5005010;28;20512;-75
2022/05/14 06:56:15;;;;;;;10.75;4.97;;;;;;;15.98;54.76;101001.81;5000533;28;20481;-76
2022/05/14 06:58:44;;;;;;;9.63;5.28;;;;;;;16.09;55.06;100997.16;4988077;28;20512;-77
2022/05/14 07:01:10;;;;;;;11.05;5.55;;;;;;;16.15;54.02;101004.13;4998152;28;20471;-76
2022/05/14 07:06:38;;;;;;;9.35;5.30;;;;;;;16.35;54.10;101001.91;4999838;28;20733;-75
2022/05/14 07:09:08;;;;;;;8.23;5.10;;;;;;;16.47;53.64;101000.75;5005542;28;20049;-75
2022/05/14 07:11:35;;;;;;;8.93;4.65;;;;;;;16.55;53.27;100993.44;4999625;28;20034;-75
2022/05/14 07:14:02;;;;;;;7.03;5.03;;;;;;;16.64;53.02;100998.56;5004834;28;20429;-76
2022/05/14 07:16:27;;;;;;;8.77;5.68;;;;;;;16.76;52.26;101007.19;5000324;28;20088;-76
2022/05/14 07:18:53;;;;;;;9.70;4.60;;;;;;;16.83;52.40;101003.50;4991909;28;20069;-76
2022/05/14 07:21:18;;;;;;;7.80;4.90;;;;;;;16.93;52.94;101005.00;5001022;28;20040;-76
2022/05/14 07:23:44;;;;;;;7.20;4.18;;;;;;;16.98;52.37;101008.44;5004471;28;20092;-76
2022/05/14 07:26:10;;;;;;;9.25;3.70;;;;;;;16.98;52.45;101003.13;5001303;28;20113;-73
2022/05/14 07:28:36;;;;;;;8.85;4.72;;;;;;;17.07;52.25;101005.53;5003687;28;20045;-72
2022/05/14 07:31:02;;;;;;;13.32;4.55;;;;;;;17.15;51.45;101004.47;5003716;28;20030;-76
2022/05/14 07:33:28;;;;;;;8.88;4.22;;;;;;;17.23;50.49;101008.69;5002692;28;20374;-75
2022/05/14 07:35:57;;;;;;;9.60;4.20;;;;;;;17.38;50.97;101010.06;5005224;28;20038;-75
2022/05/14 07:38:23;;;;;;;12.73;4.82;;;;;;;17.42;49.70;101002.84;4977643;28;20089;-74
2022/05/14 07:40:49;;;;;;;11.02;5.15;;;;;;;17.53;50.10;101012.34;5003908;28;20041;-74
2022/05/14 07:43:18;;;;;;;13.70;5.28;;;;;;;17.60;49.79;101014.81;4978296;28;20030;-75
2022/05/14 07:45:50;;;;;;;12.32;5.30;;;;;;;17.67;49.29;101003.94;5001347;28;20058;-74
2022/05/14 07:48:21;;;;;;;11.63;4.70;;;;;;;17.72;48.97;101002.00;5000184;28;20052;-74
2022/05/14 07:50:47;;;;;;;11.00;5.22;;;;;;;17.76;48.68;101002.78;5001251;28;20041;-74
2022/05/14 07:53:17;;;;;;;10.05;4.35;;;;;;;17.85;48.49;101007.06;5000222;28;20037;-74
2022/05/14 07:55:44;;;;;;;12.05;5.32;;;;;;;17.92;48.72;101004.16;4997305;28;20033;-76
2022/05/14 07:58:10;;;;;;;7.82;4.07;;;;;;;18.01;48.19;100996.78;4976893;28;20034;-74
2022/05/14 08:00:36;;;;;;;11.30;4.25;;;;;;;18.17;48.56;101003.41;4999675;28;20037;-77
2022/05/14 08:03:02;;;;;;;10.77;4.63;;;;;;;18.30;47.74;100998.59;5003271;28;20125;-74
2022/05/14 08:05:29;;;;;;;10.00;4.95;;;;;;;18.27;46.86;100994.22;4984057;28;20402;-74
2022/05/14 08:07:54;;;;;;;9.75;4.45;;;;;;;18.42;47.45;100986.63;5004410;28;20037;-74
2022/05/14 08:10:20;;;;;;;8.63;4.68;;;;;;;18.55;47.23;100980.00;4992782;28;20039;-74
2022/05/14 08:12:50;;;;;;;12.60;4.70;;;;;;;18.50;47.24;100979.28;5003081;28;20044;-73
2022/05/14 08:15:16;;;;;;;10.18;4.63;;;;;;;18.65;46.47;100992.13;5000721;28;20083;-73
2022/05/14 08:17:42;;;;;;;11.07;4.38;;;;;;;18.75;46.10;100987.38;5001471;28;20068;-73
2022/05/14 08:20:08;;;;;;;9.07;4.10;;;;;;;18.82;46.83;100976.44;5002692;28;20034;-73
2022/05/14 08:25:18;;;;;;;10.02;3.92;;;;;;;19.02;45.20;100981.13;5000763;28;20504;-73
2022/05/14 08:27:47;;;;;;;8.52;4.28;;;;;;;19.19;44.42;100969.84;4984171;28;20034;-74
2022/05/14 08:30:42;;;;;;;9.25;3.75;;;;;;;19.40;43.48;100973.56;5001948;28;20935;-73
2022/05/14 08:33:08;;;;;;;9.02;4.25;;;;;;;19.64;42.41;100977.13;4998041;28;20539;-73
2022/05/14 08:35:34;;;;;;;7.53;4.35;;;;;;;19.52;41.61;100980.28;5001197;28;20034;-73
2022/05/14 08:38:00;;;;;;;9.85;4.35;;;;;;;19.64;41.45;100979.81;4970797;28;20034;-74
2022/05/14 08:40:29;;;;;;;10.00;4.20;;;;;;;19.91;41.40;100977.06;5003467;28;20050;-73
2022/05/14 08:43:04;;;;;;;8.93;4.22;;;;;;;19.78;40.50;100971.31;5000627;28;20027;-74
2022/05/14 08:45:36;;;;;;;13.80;4.53;;;;;;;19.92;39.78;100970.81;4999259;28;20088;-73
2022/05/14 08:48:10;;;;;;;;;;;;;;;19.82;40.00;100959.56;4997440;28;20038;-73
2022/05/14 08:50:38;;;;;;;10.55;4.15;;;;;;;19.59;39.76;100973.75;5001010;28;19920;-73
2022/05/14 08:53:07;;;;;;;10.68;4.50;;;;;;;19.54;40.29;100959.66;5003336;28;20041;-75
2022/05/14 08:55:55;;;;;;;7.00;3.50;;;;;;;19.73;41.01;100967.03;5000575;28;20041;-74
2022/05/14 08:58:34;;;;;;;9.32;4.13;;;;;;;19.76;40.93;100956.25;4997978;28;20092;-73
2022/05/14 09:01:03;;;;;;;11.32;5.03;;;;;;;19.86;39.62;100968.38;5000359;28;20489;-74
2022/05/14 09:03:29;;;;;;;13.27;5.25;;;;;;;19.75;39.89;100965.19;4997286;28;20120;-74
2022/05/14 09:05:56;;;;;;;9.60;4.40;;;;;;;19.76;40.33;100996.41;5002652;28;20035;-74
2022/05/14 09:08:22;;;;;;;12.93;4.13;;;;;;;19.81;41.07;100978.38;5002075;28;20030;-74
2022/05/14 09:11:06;;;;;;;7.90;4.63;;;;;;;20.13;39.42;100961.06;5001171;28;20600;-74
2022/05/14 09:13:43;;;;;;;6.75;3.63;;;;;;;20.29;39.93;100951.47;4982585;28;20437;-74
2022/05/14 09:16:21;;;;;;;11.80;4.55;;;;;;;20.52;39.60;100972.00;4996670;28;20045;-74
2022/05/14 09:18:51;;;;;;;9.95;4.70;;;;;;;20.65;38.55;100960.81;5001007;28;20041;-74
2022/05/14 09:21:38;;;;;;;8.20;4.43;;;;;;;20.32;40.13;100954.03;5003452;28;20440;-75
2022/05/14 09:24:28;;;;;;;13.13;4.10;;;;;;;20.20;40.47;100985.81;4987249;28;20496;-77
2022/05/14 09:26:56;;;;;;;7.60;3.67;;;;;;;20.28;40.12;100952.44;4965382;28;20050;-74
2022/05/14 09:29:35;;;;;;;10.18;4.03;;;;;;;20.29;40.54;100969.38;5002726;28;20100;-78
2022/05/14 09:32:25;;;;;;;7.60;3.65;;;;;;;20.56;39.57;100957.56;5002584;28;20129;-75
2022/05/14 09:35:02;;;;;;;9.98;4.10;;;;;;;20.78;39.21;100967.41;4988172;28;20055;-76
2022/05/14 09:37:28;;;;;;;8.90;3.58;;;;;;;20.71;39.22;100949.84;4998944;28;20453;-74
2022/05/14 09:39:58;;;;;;;10.75;3.60;;;;;;;20.75;39.29;100965.75;5004936;28;20060;-76
2022/05/14 09:42:26;;;;;;;7.32;3.45;;;;;;;20.70;38.12;100958.81;5002713;28;20455;-74
2022/05/14 09:44:54;;;;;;;8.18;3.35;;;;;;;20.95;38.41;100947.91;4996986;28;20440;-74
2022/05/14 09:47:28;;;;;;;7.63;3.88;;;;;;;21.18;37.38;100954.97;5000365;28;20473;-75
2022/05/14 09:49:57;;;;;;;8.30;3.42;;;;;;;21.41;37.86;100949.50;5003451;28;20053;-74
2022/05/14 09:52:25;;;;;;;11.82;4.20;;;;;;;21.55;37.01;100953.38;4998488;28;20416;-76
2022/05/14 09:54:51;;;;;;;9.35;3.80;;;;;;;21.69;36.77;100953.63;5004759;28;20121;-74
2022/05/14 09:57:20;;;;;;;7.47;3.33;;;;;;;21.70;36.82;100936.56;5003615;28;20093;-75
2022/05/14 10:00:00;;;;;;;6.63;3.20;;;;;;;21.48;37.55;100950.09;5004177;28;20085;-74
2022/05/14 10:02:43;;;;;;;9.10;3.50;;;;;;;20.98;36.21;100958.53;5003227;28;20062;-75
2022/05/14 10:05:32;;;;;;;8.93;4.15;;;;;;;20.69;37.59;100968.66;4974764;28;20041;-75
2022/05/14 10:08:14;;;;;;;13.15;4.10;;;;;;;20.34;37.79;100951.31;4998405;28;20049;-75
2022/05/14 10:10:53;;;;;;;12.27;4.13;;;;;;;20.42;37.53;100954.53;5003252;28;20038;-75
2022/05/14 10:13:35;;;;;;;7.63;3.38;;;;;;;20.88;38.71;100947.31;5004631;28;20045;-74
2022/05/14 10:16:11;;;;;;;7.97;3.78;;;;;;;21.03;37.61;100945.78;5002073;28;20031;-75
2022/05/14 10:18:41;;;;;;;7.18;3.90;;;;;;;21.19;36.88;100946.84;5003674;28;20034;-75
2022/05/14 10:21:20;;;;;;;10.75;4.40;;;;;;;21.42;36.29;100953.94;5000614;28;20034;-75
2022/05/14 10:27:15;;;;;;;7.18;4.07;;;;;;;21.89;34.30;100942.81;5004580;28;20035;-75
2022/05/14 10:30:16;;;;;;;7.38;3.40;;;;;;;22.20;34.91;100938.72;5002231;28;20463;-76
2022/05/14 10:32:47;;;;;;;8.18;3.45;;;;;;;22.38;34.36;100934.28;4981730;28;20055;-74
2022/05/14 10:35:19;;;;;;;9.00;3.38;;;;;;;22.40;34.23;100932.41;5003642;28;20034;-74
2022/05/14 10:37:47;;;;;;;;;;;;;;;22.70;35.00;100924.59;4999252;28;20160;-75
2022/05/14 10:40:21;;;;;;;7.72;3.53;;;;;;;22.58;34.83;100919.81;5003290;28;20368;-75
2022/05/14 10:42:53;;;;;;;7.25;3.40;;;;;;;22.49;34.17;100931.06;5002050;28;20170;-75
2022/05/14 10:45:26;;;;;;;8.77;3.10;;;;;;;22.30;34.06;100905.06;5003722;28;20436;-75
2022/05/14 10:47:59;;;;;;;9.13;3.25;;;;;;;22.25;35.31;100912.50;5002501;28;20491;-75
2022/05/14 10:50:25;;;;;;;;;;;;;;;21.89;34.34;100921.34;5006434;28;20564;-75
2022/05/14 10:52:52;;;;;;;11.48;3.60;;;;;;;21.96;34.61;100929.13;4976943;28;19921;-75
2022/05/14 10:55:31;;;;;;;8.52;4.00;;;;;;;21.93;34.80;100937.31;5004835;28;20037;-75
2022/05/14 10:58:01;;;;;;;6.13;3.00;;;;;;;22.06;34.62;100922.34;5002198;28;20042;-75
2022/05/14 11:00:29;;;;;;;13.13;4.00;;;;;;;21.93;34.41;100916.72;5001683;28;20113;-75
2022/05/14 11:03:10;;;;;;;6.40;3.30;;;;;;;21.96;34.60;100907.63;4995339;28;20134;-74
2022/05/14 11:05:51;;;;;;;5.32;3.25;;;;;;;22.08;34.15;100910.56;5002923;28;20382;-76
2022/05/14 11:08:46;;;;;;;5.80;3.20;;;;;;;21.93;34.60;100923.88;4976461;28;20181;-75
2022/05/14 11:11:25;;;;;;;8.32;3.30;;;;;;;22.01;34.03;100921.72;5003041;28;20081;-76
2022/05/14 11:14:02;;;;;;;7.00;3.22;;;;;;;22.18;33.63;100908.31;4983849;28;20550;-75
2022/05/14 11:16:35;;;;;;;9.07;3.50;;;;;;;22.52;34.30;100904.88;5002407;28;20081;-75
2022/05/14 11:19:04;;;;;;;10.18;3.72;;;;;;;22.84;33.91;100896.97;5000279;28;20049;-76
2022/05/14 11:21:42;;;;;;;6.38;3.20;;;;;;;22.90;33.66;100896.69;5003407;28;20042;-74
2022/05/14 11:24:11;;;;;;;6.55;2.90;;;;;;;22.72;32.20;100906.56;4999242;28;20033;-75
2022/05/14 11:26:52;;;;;;;7.97;3.00;;;;;;;22.57;32.40;100912.72;5002295;28;20087;-76
2022/05/14 11:29:23;;;;;;;8.00;3.00;;;;;;;22.52;32.74;100899.50;4998844;28;20425;-75
2022/05/14 11:32:06;;;;;;;;;;;;;;;22.80;33.42;100899.94;5003820;28;20033;-76
2022/05/14 11:34:32;;;;;;;7.65;2.38;;;;;;;23.00;32.20;100905.16;4982596;28;19913;-78
2022/05/14 11:37:01;;;;;;;7.72;2.83;;;;;;;23.25;31.58;100893.13;5004437;28;20053;-75
2022/05/14 11:39:40;;;;;;;6.05;2.97;;;;;;;23.65;31.45;100890.97;5004385;28;20068;-75
2022/05/14 11:42:23;;;;;;;5.38;2.55;;;;;;;24.01;30.99;100888.94;4999050;28;20042;-75
2022/05/14 11:44:55;;;;;;;6.00;2.53;;;;;;;23.71;31.68;100882.53;4995621;28;20042;-75
2022/05/14 11:47:41;;;;;;;6.22;2.40;;;;;;;23.04;31.17;100901.38;5002479;28;20118;-75
2022/05/14 11:50:07;;;;;;;5.80;2.67;;;;;;;23.18;31.47;100909.59;5003019;28;20034;-75
2022/05/14 11:52:38;;;;;;;7.00;2.88;;;;;;;23.68;31.63;100905.13;5001810;28;20042;-75